createdAt,value
2018-08-27T02:15:33.417Z,60.10
2018-08-27T02:17:35.457Z,66.30
2018-08-27T02:19:37.509Z,67.50
2018-08-27T02:21:39.542Z,70.90
2018-08-27T02:23:41.621Z,72.70
2018-08-27T02:25:44.000Z,72.00
2018-08-27T02:27:46.005Z,68.90
2018-08-27T02:29:48.037Z,74.40
2018-08-27T02:31:50.069Z,76.40
2018-08-27T02:33:52.090Z,77.30
2018-08-27T02:35:54.125Z,78.80
2018-08-27T02:37:56.162Z,81.20
2018-08-27T02:39:58.210Z,81.60
2018-08-27T02:42:00.265Z,82.90
2018-08-27T02:44:02.309Z,81.10
2018-08-27T02:46:04.348Z,83.10
2018-08-27T02:48:06.378Z,83.40
2018-08-27T02:50:08.417Z,83.20
2018-08-27T02:52:10.492Z,84.80
2018-08-27T02:54:12.549Z,86.70
2018-08-27T02:56:14.577Z,86.00
2018-08-27T02:58:16.674Z,84.60
2018-08-27T03:00:18.903Z,86.00
2018-08-27T03:02:20.982Z,85.10
2018-08-27T03:04:23.037Z,84.00
2018-08-27T03:06:25.077Z,81.60
2018-08-27T03:08:27.149Z,78.00
2018-08-27T03:10:29.181Z,78.70
2018-08-27T03:12:31.218Z,80.40
2018-08-27T03:14:33.277Z,79.30
2018-08-27T03:16:35.305Z,82.50
2018-08-27T03:18:37.359Z,78.20
2018-08-27T03:20:39.425Z,80.70
2018-08-27T03:22:41.510Z,79.50
2018-08-27T03:24:43.650Z,79.60
2018-08-27T03:26:45.696Z,80.20
2018-08-27T03:28:47.753Z,81.30
2018-08-27T03:30:49.795Z,81.30
2018-08-27T03:32:51.835Z,79.60
2018-08-27T03:34:53.879Z,79.30
2018-08-27T03:36:55.927Z,77.90
2018-08-27T03:38:57.981Z,76.60
2018-08-27T03:41:00.025Z,77.70
2018-08-27T03:43:02.079Z,79.60
2018-08-27T03:45:04.158Z,76.60
2018-08-27T03:47:06.201Z,76.40
2018-08-27T03:49:08.243Z,75.90
2018-08-27T03:51:10.277Z,75.80
2018-08-27T03:53:12.386Z,72.50
2018-08-27T03:55:14.449Z,75.40
2018-08-27T03:57:16.500Z,73.40
2018-08-27T03:59:18.660Z,73.60
2018-08-27T04:01:20.725Z,70.30
2018-08-27T04:03:22.813Z,72.20
2018-08-27T04:05:25.644Z,72.10
2018-08-27T04:07:27.593Z,74.10
2018-08-27T04:09:29.680Z,72.20
2018-08-27T04:11:31.737Z,71.80
2018-08-27T04:13:33.785Z,71.20
2018-08-27T04:15:35.837Z,69.10
2018-08-27T04:17:37.889Z,70.40
2018-08-27T04:19:40.008Z,70.50
2018-08-27T04:21:42.199Z,70.10
2018-08-27T04:23:44.263Z,70.00
2018-08-27T04:25:46.310Z,67.50
2018-08-27T04:27:48.413Z,66.30
2018-08-27T04:29:50.857Z,67.50
2018-08-27T04:31:52.976Z,66.20
2018-08-27T04:33:55.070Z,66.30
2018-08-27T04:35:57.176Z,67.70
2018-08-27T04:37:59.898Z,65.60
2018-08-27T04:40:01.957Z,67.00
2018-08-27T04:42:04.004Z,64.80
2018-08-27T04:44:06.072Z,66.60
2018-08-27T04:46:08.146Z,64.80
2018-08-27T04:48:10.206Z,65.10
2018-08-27T04:50:12.252Z,63.40
2018-08-27T04:52:14.321Z,62.80
2018-08-27T04:54:16.401Z,59.70
2018-08-27T04:56:18.465Z,61.00
2018-08-27T04:58:22.212Z,60.20
2018-08-27T05:00:30.833Z,62.80
2018-08-27T05:02:32.929Z,62.80
2018-08-27T05:04:34.997Z,59.80
2018-08-27T05:06:37.159Z,62.60
2018-08-27T05:08:39.208Z,58.00
2018-08-27T05:10:41.308Z,53.30
2018-08-27T05:12:43.363Z,51.90
2018-08-27T05:14:45.521Z,54.10
2018-08-27T05:16:47.575Z,55.00
2018-08-27T05:18:49.611Z,57.50
2018-08-27T05:20:51.653Z,55.60
2018-08-27T05:22:53.736Z,50.30
2018-08-27T05:24:55.788Z,49.60
2018-08-27T05:26:57.848Z,52.90
2018-08-27T05:28:59.908Z,50.50
2018-08-27T05:31:02.082Z,52.10
2018-08-27T05:33:04.061Z,50.20
2018-08-27T05:35:06.137Z,45.40
2018-08-27T05:37:08.166Z,47.00
2018-08-27T05:39:10.212Z,43.50
2018-08-27T05:41:12.256Z,49.00
2018-08-27T05:43:14.302Z,46.40
2018-08-27T05:45:16.353Z,43.80
2018-08-27T05:47:18.413Z,46.00
2018-08-27T05:49:20.497Z,39.10
2018-08-27T05:51:22.584Z,38.60
2018-08-27T05:53:24.622Z,41.90
2018-08-27T05:55:27.594Z,39.80
2018-08-27T05:57:29.640Z,38.20
2018-08-27T05:59:31.709Z,37.90
2018-08-27T06:01:33.827Z,39.90
2018-08-27T06:03:35.938Z,38.40
2018-08-27T06:05:37.982Z,43.90
2018-08-27T06:07:40.045Z,39.80
2018-08-27T06:09:42.145Z,44.00
2018-08-27T06:11:44.166Z,43.80
2018-08-27T06:13:46.313Z,44.50
2018-08-27T06:15:48.391Z,41.50
2018-08-27T06:17:50.413Z,44.30
2018-08-27T06:19:52.461Z,44.40
2018-08-27T06:21:54.559Z,43.40
2018-08-27T06:23:56.752Z,47.80
2018-08-27T06:25:58.801Z,49.00
2018-08-27T06:28:00.855Z,44.20
2018-08-27T06:30:03.381Z,49.00
2018-08-27T06:32:05.446Z,50.40
2018-08-27T06:34:07.498Z,47.20
2018-08-27T06:36:09.529Z,46.50
2018-08-27T06:38:11.549Z,47.10
2018-08-27T06:40:13.613Z,49.40
2018-08-27T06:42:15.680Z,51.50
2018-08-27T06:44:17.715Z,49.70
2018-08-27T06:46:19.790Z,51.30
2018-08-27T06:48:21.844Z,54.10
2018-08-27T06:50:23.913Z,55.40
2018-08-27T06:52:26.102Z,51.00
2018-08-27T06:54:28.138Z,55.30
2018-08-27T06:56:30.223Z,58.70
2018-08-27T06:58:32.283Z,64.40
2018-08-27T07:00:34.355Z,64.90
2018-08-27T07:02:36.422Z,68.30
2018-08-27T07:04:38.510Z,71.50
2018-08-27T07:06:40.552Z,70.00
2018-08-27T07:08:42.610Z,76.70
2018-08-27T07:10:44.658Z,79.00
2018-08-27T07:12:46.714Z,79.00
2018-08-27T07:14:48.736Z,83.70
2018-08-27T07:16:50.778Z,84.60
2018-08-27T07:18:52.811Z,86.10
2018-08-27T07:20:54.921Z,90.00
2018-08-27T07:22:57.029Z,90.90
2018-08-27T07:24:59.137Z,90.70
2018-08-27T07:27:01.349Z,92.10
2018-08-27T07:29:03.493Z,91.60
2018-08-27T07:31:05.561Z,92.70
2018-08-27T07:33:07.651Z,93.30
2018-08-27T07:35:09.682Z,94.40
2018-08-27T07:37:11.725Z,94.40
2018-08-27T07:39:13.777Z,94.70
2018-08-27T07:41:15.821Z,94.80
2018-08-27T07:43:17.898Z,94.70
2018-08-27T07:45:19.953Z,95.00
2018-08-27T07:47:21.985Z,94.70
2018-08-27T07:49:24.025Z,94.80
2018-08-27T07:51:26.193Z,95.40
2018-08-27T07:53:28.318Z,95.40
2018-08-27T07:55:30.407Z,95.40
2018-08-27T07:57:32.496Z,95.40
2018-08-27T07:59:34.533Z,96.00
2018-08-27T08:01:36.573Z,95.90
2018-08-27T08:03:38.611Z,95.60
2018-08-27T08:05:40.761Z,95.60
2018-08-27T08:07:43.429Z,95.70
2018-08-27T08:09:45.447Z,95.70
2018-08-27T08:11:47.502Z,95.50
2018-08-27T08:13:49.556Z,95.40
2018-08-27T08:15:51.688Z,95.90
2018-08-27T08:17:53.745Z,95.80
2018-08-27T08:19:55.801Z,95.60
2018-08-27T08:21:57.833Z,95.50
2018-08-27T08:23:59.960Z,95.90
2018-08-27T08:26:02.010Z,95.60
2018-08-27T08:28:04.082Z,96.00
2018-08-27T08:30:06.297Z,96.20
2018-08-27T08:32:08.328Z,96.10
2018-08-27T08:34:10.362Z,95.80
2018-08-27T08:36:12.750Z,96.10
2018-08-27T08:38:15.075Z,96.30
2018-08-27T08:40:17.338Z,96.40
2018-08-27T08:42:19.559Z,96.10
2018-08-27T08:44:21.780Z,96.30
2018-08-27T08:46:23.871Z,96.80
2018-08-27T08:48:25.949Z,96.40
2018-08-27T08:50:28.013Z,96.30
2018-08-27T08:52:30.184Z,96.20
2018-08-27T08:54:32.253Z,97.00
2018-08-27T08:56:34.361Z,95.90
2018-08-27T08:58:36.401Z,96.30
2018-08-27T09:00:38.429Z,95.70
2018-08-27T09:02:40.485Z,95.40
2018-08-27T09:04:42.523Z,96.00
2018-08-27T09:06:44.900Z,95.20
2018-08-27T09:08:46.943Z,94.70
2018-08-27T09:10:48.984Z,95.50
2018-08-27T09:12:51.071Z,95.40
2018-08-27T09:14:53.158Z,95.00
2018-08-27T09:16:55.271Z,95.80
2018-08-27T09:18:57.261Z,95.40
2018-08-27T09:20:59.307Z,94.80
2018-08-27T09:23:01.346Z,95.00
2018-08-27T09:25:03.412Z,95.10
2018-08-27T09:27:05.467Z,94.40
2018-08-27T09:29:07.494Z,94.20
2018-08-27T09:31:09.557Z,94.00
2018-08-27T09:33:11.653Z,94.10
2018-08-27T09:35:13.636Z,94.40
2018-08-27T09:37:15.673Z,94.10
2018-08-27T09:39:18.025Z,93.70
2018-08-27T09:41:20.104Z,93.70
2018-08-27T09:43:22.867Z,94.30
2018-08-27T09:45:24.959Z,93.80
2018-08-27T09:47:27.009Z,94.40
2018-08-27T09:49:29.139Z,93.20
2018-08-27T09:51:33.422Z,93.40
2018-08-27T09:53:36.236Z,93.70
2018-08-27T11:25:07.823Z,90.40
2018-08-27T11:27:09.901Z,90.40
2018-08-27T11:42:16.290Z,86.40
2018-08-27T11:44:18.359Z,85.90
2018-08-27T11:46:20.414Z,87.30
2018-08-27T11:48:22.466Z,88.60
2018-08-27T11:50:24.661Z,86.70
2018-08-27T11:52:26.573Z,87.90
2018-08-27T11:54:28.622Z,89.30
2018-08-27T11:56:30.737Z,89.40
2018-08-27T11:58:32.918Z,89.30
2018-08-27T12:00:40.686Z,90.30
2018-08-27T12:02:42.765Z,91.40
2018-08-27T12:04:44.837Z,91.00
2018-08-27T12:06:46.914Z,93.10
2018-08-27T12:08:48.988Z,93.70
2018-08-27T12:10:51.041Z,95.00
2018-08-27T12:12:53.133Z,96.20
2018-08-27T12:14:55.207Z,96.00
2018-08-27T12:16:57.303Z,96.60
2018-08-27T12:18:59.286Z,97.20
2018-08-27T12:21:01.385Z,97.60
2018-08-27T12:23:03.605Z,97.70
2018-08-27T12:25:05.732Z,98.10
2018-08-27T12:27:07.749Z,98.20
2018-08-27T12:29:09.789Z,98.20
2018-08-27T12:31:12.052Z,98.60
2018-08-27T12:33:14.106Z,99.20
2018-08-27T12:35:16.172Z,99.10
2018-08-27T12:37:18.204Z,99.20
2018-08-27T12:39:20.221Z,99.30
2018-08-27T12:41:22.303Z,99.60
2018-08-27T12:43:24.301Z,99.70
2018-08-27T12:45:26.360Z,99.90
2018-08-27T12:47:28.417Z,99.90
2018-08-27T12:49:30.498Z,99.90
2018-08-27T12:51:32.542Z,99.50
2018-08-27T12:53:34.576Z,99.70
2018-08-27T12:55:36.665Z,99.70
2018-08-27T12:57:38.698Z,98.60
2018-08-27T12:59:41.317Z,97.90
2018-08-27T13:01:43.388Z,98.40
2018-08-27T13:03:45.445Z,97.40
2018-08-27T13:05:47.523Z,96.10
2018-08-27T13:07:49.660Z,97.30
2018-08-27T13:09:51.621Z,96.30
2018-08-27T13:11:53.679Z,95.00
2018-08-27T13:13:55.753Z,94.00
2018-08-27T13:15:57.822Z,95.00
2018-08-27T13:17:59.913Z,94.40
2018-08-27T13:20:02.120Z,93.10
2018-08-27T13:22:04.341Z,93.20
2018-08-27T13:24:06.406Z,92.50
2018-08-27T13:26:08.470Z,92.50
2018-08-27T13:28:10.526Z,91.00
2018-08-27T13:30:12.608Z,91.80
2018-08-27T13:32:14.653Z,91.00
2018-08-27T13:34:17.217Z,86.30
2018-08-27T13:36:19.289Z,88.10
2018-08-27T13:38:21.348Z,90.30
2018-08-27T13:40:23.735Z,84.60
2018-08-27T13:42:25.873Z,82.20
2018-08-27T13:44:28.002Z,86.90
2018-08-27T13:46:30.157Z,85.70
2018-08-27T13:48:32.472Z,88.40
2018-08-27T13:50:34.569Z,85.60
2018-08-27T13:52:36.673Z,80.70
2018-08-27T13:54:38.824Z,81.80
2018-08-27T13:56:40.965Z,74.00
2018-08-27T13:58:42.997Z,72.50
2018-08-27T14:00:45.127Z,75.50
2018-08-27T14:02:47.285Z,65.70
2018-08-27T14:04:49.345Z,66.10
2018-08-27T14:06:51.412Z,67.70
2018-08-27T14:08:53.513Z,74.40
2018-08-27T14:10:55.621Z,68.00
2018-08-27T14:12:57.741Z,64.60
2018-08-27T14:14:59.857Z,63.50
2018-08-27T14:17:02.110Z,63.70
2018-08-27T14:19:04.332Z,65.80
2018-08-27T14:21:06.396Z,64.50
2018-08-27T14:23:08.561Z,60.30
2018-08-27T14:25:10.642Z,64.40
2018-08-27T14:27:12.756Z,66.50
2018-08-27T14:29:14.801Z,66.90
2018-08-27T14:31:16.877Z,69.20
2018-08-27T14:33:18.991Z,66.20
2018-08-27T14:35:21.020Z,64.10
2018-08-27T14:37:23.154Z,57.10
2018-08-27T14:39:25.245Z,66.20
2018-08-27T14:41:27.434Z,58.00
2018-08-27T14:43:29.537Z,63.40
2018-08-27T14:45:31.593Z,59.60
2018-08-27T14:47:33.661Z,63.90
2018-08-27T14:49:35.724Z,65.10
2018-08-27T14:51:37.824Z,66.40
2018-08-27T14:53:39.893Z,67.70
2018-08-27T14:55:41.963Z,74.80
2018-08-27T14:57:44.029Z,77.80
2018-08-27T14:59:46.087Z,77.60
2018-08-27T15:01:48.373Z,88.50
2018-08-27T15:03:50.447Z,91.20
2018-08-27T15:05:52.481Z,92.50
2018-08-27T15:07:54.585Z,92.80
2018-08-27T15:09:56.642Z,91.80
2018-08-27T15:11:58.706Z,90.40
2018-08-27T15:14:00.749Z,91.20
2018-08-27T15:16:02.812Z,91.90
2018-08-27T15:18:04.904Z,91.50
2018-08-27T15:20:07.361Z,92.70
2018-08-27T15:22:09.750Z,93.60
2018-08-27T15:24:11.860Z,92.60
2018-08-27T15:26:14.001Z,92.80
2018-08-27T15:28:16.086Z,93.50
2018-08-27T15:30:18.241Z,93.00
2018-08-27T15:32:20.380Z,92.90
2018-08-27T15:34:22.454Z,92.90
2018-08-27T15:36:24.502Z,92.10
2018-08-27T15:38:27.209Z,92.20
2018-08-27T15:40:29.231Z,91.50
2018-08-27T15:42:31.309Z,91.40
2018-08-27T15:44:33.405Z,91.40
2018-08-27T15:46:41.053Z,90.20
2018-08-27T15:48:43.105Z,91.00
2018-08-27T15:50:45.277Z,90.50
2018-08-27T15:52:47.209Z,90.50
2018-08-27T15:54:49.268Z,90.50
2018-08-27T15:56:51.309Z,90.00
2018-08-27T15:58:53.389Z,90.20
2018-08-27T16:00:55.438Z,89.20
2018-08-27T16:02:57.513Z,88.20
2018-08-27T16:04:59.541Z,87.90
2018-08-27T16:07:01.650Z,87.80
2018-08-27T16:09:04.261Z,89.90
2018-08-27T16:11:06.357Z,88.60
2018-08-27T16:13:08.446Z,89.20
2018-08-27T16:15:10.486Z,90.10
2018-08-27T16:17:12.588Z,90.20
2018-08-27T16:19:14.653Z,88.50
2018-08-27T16:21:16.729Z,89.60
2018-08-27T16:23:18.830Z,85.40
2018-08-27T16:25:20.886Z,84.80
2018-08-27T16:27:22.978Z,86.50
2018-08-27T16:29:25.049Z,82.80
2018-08-27T16:31:27.116Z,82.20
2018-08-27T16:33:29.145Z,82.50
2018-08-27T16:35:31.163Z,80.20
2018-08-27T16:37:33.221Z,74.30
2018-08-27T16:39:35.297Z,75.30
2018-08-27T16:41:37.801Z,75.60
2018-08-27T16:43:39.835Z,77.30
2018-08-27T16:45:41.885Z,77.20
2018-08-27T16:47:43.914Z,78.10
2018-08-27T16:49:45.977Z,79.90
2018-08-27T16:51:48.037Z,76.00
2018-08-27T16:53:50.091Z,73.00
2018-08-27T16:55:52.161Z,67.00
2018-08-27T16:57:54.200Z,65.90
2018-08-27T16:59:56.289Z,69.30
2018-08-27T17:01:58.420Z,67.10
2018-08-27T17:04:00.515Z,67.80
2018-08-27T17:06:02.601Z,66.80
2018-08-27T17:08:04.669Z,66.90
2018-08-27T17:10:06.764Z,67.10
2018-08-27T17:12:08.809Z,65.70
2018-08-27T17:14:10.869Z,65.40
2018-08-27T17:16:12.967Z,67.60
2018-08-27T17:18:15.035Z,68.00
2018-08-27T17:20:17.091Z,66.60
2018-08-27T17:22:19.225Z,65.10
2018-08-27T17:24:21.330Z,66.40
2018-08-27T17:26:23.423Z,67.20
2018-08-27T17:28:25.483Z,68.60
2018-08-27T17:30:27.537Z,67.80
2018-08-27T17:32:29.669Z,68.80
2018-08-27T17:34:31.839Z,66.30
2018-08-27T17:36:33.951Z,69.80
2018-08-27T17:38:36.060Z,69.00
2018-08-27T17:40:38.134Z,68.50
2018-08-27T17:42:40.256Z,70.00
2018-08-27T17:44:42.336Z,71.40
2018-08-27T17:46:44.436Z,70.70
2018-08-27T17:48:46.965Z,69.50
2018-08-27T17:50:49.045Z,68.80
2018-08-27T17:52:51.099Z,70.20
2018-08-27T17:54:53.202Z,70.70
2018-08-27T17:56:55.245Z,72.80
2018-08-27T17:58:57.305Z,73.30
2018-08-27T18:00:59.342Z,71.90
2018-08-27T18:03:01.510Z,73.30
2018-08-27T18:05:03.952Z,71.80
2018-08-27T18:07:05.937Z,72.80
2018-08-27T18:09:07.993Z,73.10
2018-08-27T18:11:10.095Z,75.20
2018-08-27T18:13:12.176Z,74.80
2018-08-27T18:15:14.245Z,75.70
2018-08-27T18:17:16.305Z,75.00
2018-08-27T18:19:18.357Z,77.20
2018-08-27T18:21:20.433Z,77.20
2018-08-27T18:23:22.458Z,77.50
2018-08-27T18:25:24.497Z,77.50
2018-08-27T18:27:26.561Z,77.40
2018-08-27T18:29:28.648Z,78.50
2018-08-27T18:31:30.694Z,78.60
2018-08-27T18:33:32.761Z,79.60
2018-08-27T18:35:34.834Z,78.90
2018-08-27T18:37:36.880Z,79.00
2018-08-27T18:39:38.978Z,80.60
2018-08-27T18:41:41.130Z,77.90
2018-08-27T18:43:43.197Z,75.80
2018-08-27T18:45:45.241Z,74.10
2018-08-27T18:47:47.349Z,69.10
2018-08-27T18:49:49.465Z,69.40
2018-08-27T18:51:51.686Z,69.20
2018-08-27T18:53:54.221Z,66.50
2018-08-27T18:55:57.034Z,66.30
2018-08-27T18:57:59.378Z,64.80
2018-08-27T19:00:01.659Z,59.10
2018-08-27T19:02:04.325Z,60.50
2018-08-27T19:04:07.679Z,59.00
2018-08-27T19:06:10.025Z,56.20
2018-08-27T19:08:12.248Z,55.60
2018-08-27T19:10:15.074Z,56.40
2018-08-27T19:12:17.301Z,56.60
2018-08-27T19:14:19.962Z,53.60
2018-08-27T19:16:22.767Z,53.60
2018-08-27T19:18:25.025Z,52.30
2018-08-27T19:20:27.467Z,55.50
2018-08-27T19:22:29.692Z,54.00
2018-08-27T19:24:32.097Z,54.70
2018-08-27T19:26:36.674Z,53.60
2018-08-27T19:28:39.016Z,53.10
2018-08-27T19:30:41.470Z,54.50
2018-08-27T19:32:43.683Z,55.60
2018-08-27T19:34:46.117Z,54.80
2018-08-27T19:36:48.351Z,55.40
2018-08-27T19:38:51.485Z,56.10
2018-08-27T19:40:53.982Z,55.40
2018-08-27T19:42:56.129Z,55.40
2018-08-27T19:44:58.214Z,57.80
2018-08-27T19:47:00.306Z,57.50
2018-08-27T19:49:02.595Z,56.10
2018-08-27T19:51:04.845Z,55.90
2018-08-27T19:53:08.150Z,58.70
2018-08-27T19:55:10.274Z,58.30
2018-08-27T19:57:12.486Z,57.80
2018-08-27T19:59:14.655Z,58.20
2018-08-27T20:01:17.342Z,57.50
2018-08-27T20:03:20.694Z,60.10
2018-08-27T20:05:22.829Z,59.60
2018-08-27T20:07:25.034Z,58.10
2018-08-27T20:09:27.169Z,57.60
2018-08-27T20:11:30.408Z,58.30
2018-08-27T20:13:32.644Z,56.80
2018-08-27T20:15:34.954Z,57.50
2018-08-27T20:17:37.289Z,57.00
2018-08-27T20:19:39.425Z,56.70
2018-08-27T20:21:41.866Z,56.00
2018-08-27T20:23:44.150Z,55.90
2018-08-27T20:25:46.449Z,55.60
2018-08-27T20:27:48.670Z,55.80
2018-08-27T20:29:50.995Z,55.10
2018-08-27T20:31:53.125Z,55.70
2018-08-27T20:33:55.419Z,57.20
2018-08-27T20:35:57.567Z,58.20
2018-08-27T20:37:59.637Z,60.20
2018-08-27T20:40:01.713Z,56.90
2018-08-27T20:42:03.787Z,58.20
2018-08-27T20:44:05.957Z,58.20
2018-08-27T20:46:08.078Z,59.80
2018-08-27T20:48:10.160Z,56.90
2018-08-27T20:50:12.217Z,57.40
2018-08-27T20:52:14.280Z,58.10
2018-08-27T20:54:16.305Z,57.90
2018-08-27T20:56:18.358Z,58.90
2018-08-27T20:58:21.465Z,57.00
2018-08-27T21:00:23.497Z,55.70
2018-08-27T21:02:25.554Z,56.10
2018-08-27T21:04:27.616Z,58.50
2018-08-27T21:06:29.674Z,56.30
2018-08-27T21:08:31.759Z,58.00
2018-08-27T21:10:33.829Z,56.80
2018-08-27T21:12:35.881Z,56.50
2018-08-27T21:14:40.489Z,57.10
2018-08-27T21:16:42.574Z,56.90
2018-08-27T21:18:44.645Z,58.10
2018-08-27T21:20:46.689Z,58.60
2018-08-27T21:22:48.786Z,59.60
2018-08-27T21:24:51.507Z,60.20
2018-08-27T21:26:53.773Z,62.60
2018-08-27T21:28:55.853Z,64.40
2018-08-27T21:30:57.905Z,63.00
2018-08-27T21:32:59.960Z,63.30
2018-08-27T21:35:02.013Z,63.70
2018-08-27T21:37:04.093Z,65.70
2018-08-27T21:39:06.181Z,64.50
2018-08-27T21:41:08.331Z,65.50
2018-08-27T21:43:10.441Z,65.80
2018-08-27T21:45:12.499Z,67.20
2018-08-27T21:47:14.586Z,66.10
2018-08-27T21:49:16.669Z,66.20
2018-08-27T21:51:18.717Z,66.70
2018-08-27T21:53:20.754Z,69.20
2018-08-27T21:55:22.789Z,69.20
2018-08-27T21:57:24.844Z,69.20
2018-08-27T21:59:26.914Z,70.00
2018-08-27T22:01:28.990Z,72.30
2018-08-27T22:03:36.711Z,72.20
2018-08-27T22:05:38.896Z,73.50
2018-08-27T22:07:40.966Z,74.00
2018-08-27T22:09:43.031Z,74.00
2018-08-27T22:11:45.081Z,75.00
2018-08-27T22:13:47.173Z,76.20
2018-08-27T22:15:49.242Z,76.70
2018-08-27T22:17:51.276Z,75.80
2018-08-27T22:19:53.329Z,76.50
2018-08-27T22:21:55.380Z,78.10
2018-08-27T22:23:57.461Z,78.10
2018-08-27T22:25:59.566Z,78.70
2018-08-27T22:28:01.671Z,79.80
2018-08-27T22:30:04.211Z,79.60
2018-08-27T22:32:06.327Z,80.90
2018-08-27T22:34:08.410Z,81.10
2018-08-27T22:36:10.518Z,81.40
2018-08-27T22:38:12.594Z,82.10
2018-08-27T22:40:14.644Z,82.50
2018-08-27T22:42:16.677Z,83.20
2018-08-27T22:44:18.757Z,83.30
2018-08-27T22:46:20.828Z,82.20
2018-08-27T22:48:22.881Z,82.00
2018-08-27T22:50:24.935Z,82.20
2018-08-27T22:52:27.003Z,82.50
2018-08-27T22:54:29.049Z,82.10
2018-08-27T22:56:31.127Z,82.40
2018-08-27T22:58:33.173Z,82.20
2018-08-27T23:00:35.201Z,82.00
2018-08-27T23:02:43.154Z,82.00
2018-08-27T23:04:50.862Z,82.40
2018-08-27T23:06:52.923Z,81.50
2018-08-27T23:08:54.977Z,82.50
2018-08-27T23:10:57.037Z,82.00
2018-08-27T23:12:59.097Z,82.50
2018-08-27T23:15:01.154Z,82.90
2018-08-27T23:17:03.236Z,83.10
2018-08-27T23:19:05.304Z,83.60
2018-08-27T23:21:07.383Z,83.00
2018-08-27T23:23:09.437Z,83.10
2018-08-27T23:25:11.505Z,83.00
2018-08-27T23:27:13.538Z,83.90
2018-08-27T23:29:15.600Z,84.20
2018-08-27T23:31:17.641Z,83.90
2018-08-27T23:33:19.704Z,84.00
2018-08-27T23:35:21.758Z,84.00
2018-08-27T23:37:24.012Z,84.00
2018-08-27T23:39:26.073Z,85.00
2018-08-27T23:41:28.128Z,86.10
2018-08-27T23:43:30.190Z,85.60
